createdAt,value
2017-08-05T00:00:04.093Z,89.65
2017-08-05T00:00:08.345Z,90.43
2017-08-05T00:00:12.697Z,89.85
2017-08-05T00:00:17.165Z,90.43
2017-08-05T00:00:21.522Z,90.05
2017-08-05T00:00:25.758Z,90.05
2017-08-05T00:00:29.874Z,89.95
2017-08-05T00:00:34.342Z,89.85
2017-08-05T00:00:38.678Z,90.23
2017-08-05T00:00:43.027Z,90.05
2017-08-05T00:00:47.258Z,90.14
2017-08-05T00:00:51.614Z,90.33
2017-08-05T00:00:55.964Z,90.33
2017-08-05T00:01:00.316Z,90.05
2017-08-05T00:01:04.916Z,90.33
2017-08-05T00:01:09.249Z,90.33
2017-08-05T00:01:13.725Z,90.33
2017-08-05T00:01:18.211Z,90.05
2017-08-05T00:01:22.435Z,90.33
2017-08-05T00:01:26.900Z,90.33
2017-08-05T00:01:31.131Z,90.53
2017-08-05T00:01:35.363Z,90.33
2017-08-05T00:01:39.838Z,90.23
2017-08-05T00:01:44.350Z,90.23
2017-08-05T00:01:48.821Z,90.33
2017-08-05T00:01:53.178Z,90.23
2017-08-05T00:01:57.656Z,90.23
2017-08-05T00:02:02.002Z,90.14
2017-08-05T00:02:06.345Z,90.14
2017-08-05T00:02:10.829Z,90.33
2017-08-05T00:02:15.298Z,90.23
2017-08-05T00:02:19.650Z,90.33
2017-08-05T00:02:24.121Z,90.33
2017-08-05T00:02:28.583Z,89.95
2017-08-05T00:02:33.049Z,90.43
2017-08-05T00:02:37.417Z,89.95
2017-08-05T00:02:41.885Z,89.95
2017-08-05T00:02:46.356Z,90.33
2017-08-05T00:02:50.826Z,90.33
2017-08-05T00:02:55.276Z,90.33
2017-08-05T00:02:59.638Z,90.14
2017-08-05T00:03:04.113Z,90.05
2017-08-05T00:03:08.581Z,90.14
2017-08-05T00:03:12.929Z,90.14
2017-08-05T00:03:17.309Z,90.14
2017-08-05T00:03:21.784Z,90.33
2017-08-05T00:03:26.241Z,90.14
2017-08-05T00:03:30.498Z,90.33
2017-08-05T00:03:34.862Z,90.33
2017-08-05T00:03:39.329Z,90.23
2017-08-05T00:03:43.672Z,89.95
2017-08-05T00:03:48.138Z,90.23
2017-08-05T00:03:52.482Z,90.33
2017-08-05T00:03:56.704Z,90.05
2017-08-05T00:04:01.172Z,90.23
2017-08-05T00:04:05.634Z,89.75
2017-08-05T00:04:09.875Z,90.05
2017-08-05T00:04:14.328Z,90.05
2017-08-05T00:04:18.660Z,89.95
2017-08-05T00:04:23.127Z,90.33
2017-08-05T00:04:27.595Z,90.33
2017-08-05T00:04:32.066Z,90.05
2017-08-05T00:04:36.553Z,90.14
2017-08-05T00:04:41.018Z,90.33
2017-08-05T00:04:45.242Z,90.33
2017-08-05T00:04:49.713Z,90.14
2017-08-05T00:04:54.196Z,90.33
2017-08-05T00:04:58.661Z,90.05
2017-08-05T00:05:03.013Z,89.95
2017-08-05T00:05:07.368Z,90.14
2017-08-05T00:05:11.843Z,90.14
2017-08-05T00:05:16.293Z,90.05
2017-08-05T00:05:20.626Z,90.33
2017-08-05T00:05:25.078Z,90.05
2017-08-05T00:05:29.547Z,90.43
2017-08-05T00:05:33.787Z,90.53
2017-08-05T00:05:38.135Z,90.14
2017-08-05T00:05:42.605Z,90.33
2017-08-05T00:05:47.065Z,89.95
2017-08-05T00:05:51.532Z,90.05
2017-08-05T00:05:55.764Z,90.14
2017-08-05T00:06:00.000Z,90.53
2017-08-05T00:06:04.332Z,90.43
2017-08-05T00:06:08.670Z,89.95
2017-08-05T00:06:13.015Z,90.14
2017-08-05T00:06:17.483Z,90.33
2017-08-05T00:06:21.830Z,90.23
2017-08-05T00:06:26.311Z,90.23
2017-08-05T00:06:30.782Z,90.23
2017-08-05T00:06:35.247Z,89.95
2017-08-05T00:06:39.721Z,89.95
2017-08-05T00:06:44.186Z,90.05
2017-08-05T00:06:48.654Z,90.33
2017-08-05T00:06:52.994Z,90.43
2017-08-05T00:06:57.218Z,90.33
2017-08-05T00:07:01.735Z,90.33
2017-08-05T00:07:06.085Z,90.14
2017-08-05T00:07:10.085Z,90.43
2017-08-05T00:07:14.467Z,90.53
2017-08-05T00:07:18.828Z,90.33
2017-08-05T00:07:23.181Z,90.43
2017-08-05T00:07:27.641Z,90.33
2017-08-05T00:07:32.105Z,90.43
2017-08-05T00:07:36.458Z,90.43
2017-08-05T00:07:40.945Z,90.43
2017-08-05T00:07:45.294Z,90.05
2017-08-05T00:07:49.772Z,90.14
2017-08-05T00:07:54.230Z,90.23
2017-08-05T00:07:58.472Z,90.33
2017-08-05T00:08:03.034Z,90.23
2017-08-05T00:08:07.401Z,90.33
2017-08-05T00:08:11.853Z,90.14
2017-08-05T00:08:16.307Z,90.33
2017-08-05T00:08:20.672Z,90.33
2017-08-05T00:08:25.132Z,90.43
2017-08-05T00:08:29.484Z,90.14
2017-08-05T00:08:33.942Z,90.23
2017-08-05T00:08:38.409Z,90.14
2017-08-05T00:08:42.883Z,90.14
2017-08-05T00:08:47.117Z,90.33
2017-08-05T00:08:51.580Z,90.33
2017-08-05T00:08:56.044Z,90.23
2017-08-05T00:09:00.519Z,90.14
2017-08-05T00:09:05.303Z,90.33
2017-08-05T00:09:09.753Z,90.33
2017-08-05T00:09:14.231Z,90.33
2017-08-05T00:09:18.703Z,90.33
2017-08-05T00:09:23.168Z,90.33
2017-08-05T00:09:27.605Z,90.33
2017-08-05T00:09:32.080Z,90.14
2017-08-05T00:09:36.548Z,90.23
2017-08-05T00:09:40.764Z,90.23
2017-08-05T00:09:45.113Z,90.05
2017-08-05T00:09:49.486Z,90.14
2017-08-05T00:09:53.939Z,90.91
2017-08-05T00:09:58.288Z,90.14
2017-08-05T00:10:02.763Z,90.53
2017-08-05T00:10:06.993Z,90.53
2017-08-05T00:10:11.457Z,90.23
2017-08-05T00:10:15.805Z,90.23
2017-08-05T00:10:20.274Z,90.62
2017-08-05T00:10:24.743Z,90.62
2017-08-05T00:10:29.215Z,90.81
2017-08-05T00:10:33.675Z,90.33
2017-08-05T00:10:38.157Z,90.81
2017-08-05T00:10:42.517Z,90.81
2017-08-05T00:10:46.855Z,90.72
2017-08-05T00:10:51.321Z,90.81
2017-08-05T00:10:55.778Z,90.81
2017-08-05T00:11:00.118Z,90.53
2017-08-05T00:11:04.938Z,90.33
2017-08-05T00:11:09.407Z,90.05
2017-08-05T00:11:13.892Z,90.91
2017-08-05T00:11:18.121Z,90.72
2017-08-05T00:11:22.579Z,90.72
2017-08-05T00:11:27.068Z,90.81
2017-08-05T00:11:31.406Z,90.53
2017-08-05T00:11:35.754Z,90.62
2017-08-05T00:11:40.117Z,90.72
2017-08-05T00:11:44.591Z,90.53
2017-08-05T00:11:48.933Z,90.81
2017-08-05T00:11:53.414Z,90.72
2017-08-05T00:11:57.630Z,90.53
2017-08-05T00:12:01.975Z,90.81
2017-08-05T00:12:06.430Z,90.81
2017-08-05T00:12:10.765Z,90.62
2017-08-05T00:12:15.220Z,90.62
2017-08-05T00:12:19.587Z,90.72
2017-08-05T00:12:23.946Z,90.43
2017-08-05T00:12:28.399Z,91.01
2017-08-05T00:12:32.861Z,90.91
2017-08-05T00:12:37.102Z,90.62
2017-08-05T00:12:41.564Z,90.91
2017-08-05T00:12:46.026Z,91.01
2017-08-05T00:12:50.406Z,90.91
2017-08-05T00:12:54.859Z,91.2
2017-08-05T00:12:59.327Z,90.81
2017-08-05T00:13:03.974Z,91.11
2017-08-05T00:13:08.303Z,91.01
2017-08-05T00:13:12.671Z,90.91
2017-08-05T00:13:16.935Z,90.81
2017-08-05T00:13:21.390Z,90.91
2017-08-05T00:13:25.842Z,91.11
2017-08-05T00:13:30.200Z,90.91
2017-08-05T00:13:34.661Z,90.91
2017-08-05T00:13:38.904Z,90.91
2017-08-05T00:13:43.373Z,90.62
2017-08-05T00:13:47.827Z,90.81
2017-08-05T00:13:52.279Z,90.81
2017-08-05T00:13:56.759Z,90.81
2017-08-05T00:14:01.121Z,90.62
2017-08-05T00:14:05.510Z,90.81
2017-08-05T00:14:09.622Z,90.81
2017-08-05T00:14:14.087Z,90.81
2017-08-05T00:14:18.426Z,90.53
2017-08-05T00:14:22.635Z,90.53
2017-08-05T00:14:27.106Z,90.72
2017-08-05T00:14:31.586Z,90.81
2017-08-05T00:14:36.055Z,90.81
2017-08-05T00:14:40.541Z,90.72
2017-08-05T00:14:45.022Z,90.72
2017-08-05T00:14:49.352Z,90.81
2017-08-05T00:14:53.828Z,90.91
2017-08-05T00:14:58.304Z,90.81
2017-08-05T00:15:02.780Z,90.72
2017-08-05T00:15:07.257Z,90.72
2017-08-05T00:15:11.356Z,90.91
2017-08-05T00:15:15.809Z,90.43
2017-08-05T00:15:20.161Z,90.62
2017-08-05T00:15:24.523Z,90.72
2017-08-05T00:15:28.996Z,90.53
2017-08-05T00:15:33.349Z,90.72
2017-08-05T00:15:37.811Z,90.72
2017-08-05T00:15:42.156Z,91.2
2017-08-05T00:15:46.608Z,90.72
2017-08-05T00:15:51.076Z,91.2
2017-08-05T00:15:55.291Z,91.3
2017-08-05T00:15:59.639Z,91.11
2017-08-05T00:16:03.991Z,91.2
2017-08-05T00:16:08.212Z,91.01
2017-08-05T00:16:12.696Z,91.39
2017-08-05T00:16:17.159Z,91.3
2017-08-05T00:16:21.388Z,91.3
2017-08-05T00:16:25.852Z,91.3
2017-08-05T00:16:30.318Z,91.39
2017-08-05T00:16:34.660Z,91.68
2017-08-05T00:16:39.116Z,91.78
2017-08-05T00:16:43.362Z,91.78
2017-08-05T00:16:47.734Z,91.49
2017-08-05T00:16:52.205Z,91.88
2017-08-05T00:16:56.554Z,91.49
2017-08-05T00:17:00.896Z,91.78
2017-08-05T00:17:05.440Z,91.49
2017-08-05T00:17:09.892Z,91.49
2017-08-05T00:17:14.241Z,91.68
2017-08-05T00:17:18.702Z,91.68
2017-08-05T00:17:23.157Z,91.88
2017-08-05T00:17:27.626Z,91.49
2017-08-05T00:17:32.095Z,91.39
2017-08-05T00:17:36.562Z,92.16
2017-08-05T00:17:41.011Z,91.88
2017-08-05T00:17:45.467Z,91.68
2017-08-05T00:17:49.812Z,92.16
2017-08-05T00:17:54.271Z,92.16
2017-08-05T00:17:58.747Z,92.36
2017-08-05T00:18:03.205Z,92.55
2017-08-05T00:18:07.449Z,92.84
2017-08-05T00:18:11.806Z,92.55
2017-08-05T00:18:16.280Z,92.46
2017-08-05T00:18:20.623Z,92.55
2017-08-05T00:18:25.090Z,92.55
2017-08-05T00:18:29.437Z,92.65
2017-08-05T00:18:33.907Z,92.65
2017-08-05T00:18:38.260Z,93.13
2017-08-05T00:18:42.481Z,92.84
2017-08-05T00:18:46.932Z,92.84
2017-08-05T00:18:51.288Z,92.55
2017-08-05T00:18:55.637Z,92.84
2017-08-05T00:18:59.996Z,92.84
2017-08-05T00:19:04.354Z,92.46
2017-08-05T00:19:08.812Z,92.46
2017-08-05T00:19:13.266Z,92.46
2017-08-05T00:19:17.635Z,92.84
2017-08-05T00:19:22.111Z,93.13
2017-08-05T00:19:26.570Z,92.74
2017-08-05T00:19:30.935Z,92.94
2017-08-05T00:19:35.413Z,92.74
2017-08-05T00:19:39.884Z,92.84
2017-08-05T00:19:44.366Z,92.84
2017-08-05T00:19:48.606Z,92.84
2017-08-05T00:19:53.072Z,92.84
2017-08-05T00:19:57.554Z,93.32
2017-08-05T00:20:01.915Z,93.32
2017-08-05T00:20:06.295Z,93.32
2017-08-05T00:20:10.667Z,93.32
2017-08-05T00:20:15.007Z,93.32
2017-08-05T00:20:19.471Z,93.23
2017-08-05T00:20:23.940Z,93.13
2017-08-05T00:20:28.286Z,93.32
2017-08-05T00:20:32.750Z,93.52
2017-08-05T00:20:37.096Z,93.42
2017-08-05T00:20:41.566Z,93.32
2017-08-05T00:20:46.029Z,93.32
2017-08-05T00:20:50.504Z,92.74
2017-08-05T00:20:54.863Z,92.74
2017-08-05T00:20:59.310Z,92.7
2017-08-05T00:21:03.540Z,92.74
2017-08-05T00:21:08.004Z,92.84
2017-08-05T00:21:12.459Z,93.62
2017-08-05T00:21:16.798Z,93.32
2017-08-05T00:21:21.024Z,93.32
2017-08-05T00:21:25.498Z,93.32
2017-08-05T00:21:29.962Z,93.32
2017-08-05T00:21:34.410Z,93.42
2017-08-05T00:21:38.755Z,93.42
2017-08-05T00:21:43.206Z,93.42
2017-08-05T00:21:47.683Z,93.32
2017-08-05T00:21:52.148Z,93.32
2017-08-05T00:21:56.496Z,93.28
2017-08-05T00:22:00.962Z,93.18
2017-08-05T00:22:05.306Z,93.32
2017-08-05T00:22:09.536Z,93.32
2017-08-05T00:22:13.997Z,93.32
2017-08-05T00:22:18.363Z,93.13
2017-08-05T00:22:22.844Z,93.23
2017-08-05T00:22:27.309Z,93.9
2017-08-05T00:22:31.667Z,93.42
2017-08-05T00:22:36.026Z,94.34
2017-08-05T00:22:40.481Z,94.38
2017-08-05T00:22:44.948Z,94.29
2017-08-05T00:22:49.317Z,93.8
2017-08-05T00:22:53.785Z,93.71
2017-08-05T00:22:58.110Z,93.18
2017-08-05T00:23:02.574Z,94.24
2017-08-05T00:23:07.038Z,93.8
2017-08-05T00:23:11.512Z,93.66
2017-08-05T00:23:15.995Z,93.76
2017-08-05T00:23:20.465Z,93.76
2017-08-05T00:23:24.915Z,93.66
2017-08-05T00:23:29.157Z,93.66
2017-08-05T00:23:33.494Z,93.85
2017-08-05T00:23:37.962Z,93.37
2017-08-05T00:23:42.430Z,93.57
2017-08-05T00:23:46.790Z,93.66
2017-08-05T00:23:51.251Z,93.66
2017-08-05T00:23:55.603Z,93.95
2017-08-05T00:23:59.953Z,94.05
2017-08-05T00:24:04.314Z,93.8
2017-08-05T00:24:08.549Z,93.85
2017-08-05T00:24:13.007Z,94.24
2017-08-05T00:24:17.339Z,93.95
2017-08-05T00:24:21.681Z,93.95
2017-08-05T00:24:26.135Z,93.85
2017-08-05T00:24:30.496Z,94.68
2017-08-05T00:24:34.959Z,94.58
2017-08-05T00:24:39.443Z,94.73
2017-08-05T00:24:43.919Z,94.73
2017-08-05T00:24:48.377Z,94.53
2017-08-05T00:24:52.835Z,94.34
2017-08-05T00:24:57.357Z,94.43
2017-08-05T00:25:02.079Z,94.34
2017-08-05T00:25:06.534Z,94.53
2017-08-05T00:25:11.012Z,94.34
2017-08-05T00:25:15.461Z,94.53
2017-08-05T00:25:19.936Z,94.43
2017-08-05T00:25:24.397Z,94.29
2017-08-05T00:25:28.732Z,94.34
2017-08-05T00:25:33.194Z,94.63
2017-08-05T00:25:37.681Z,94.53
2017-08-05T00:25:42.146Z,94.43
2017-08-05T00:25:46.484Z,94.43
2017-08-05T00:25:50.959Z,94.58
2017-08-05T00:25:55.419Z,94.43
2017-08-05T00:25:59.764Z,94.53
2017-08-05T00:26:04.217Z,94.34
2017-08-05T00:26:08.563Z,94.53
2017-08-05T00:26:13.036Z,94.63
2017-08-05T00:26:17.402Z,94.53
2017-08-05T00:26:21.865Z,94.73
2017-08-05T00:26:26.319Z,94.43
2017-08-05T00:26:30.782Z,94.43
2017-08-05T00:26:35.112Z,94.34
2017-08-05T00:26:39.461Z,94.15
2017-08-05T00:26:43.941Z,94.92
2017-08-05T00:26:48.422Z,94.53
2017-08-05T00:26:52.778Z,94.92
2017-08-05T00:26:57.244Z,94.53
2017-08-05T00:27:01.583Z,94.73
2017-08-05T00:27:06.437Z,94.73
2017-08-05T00:27:10.906Z,94.73
2017-08-05T00:27:15.147Z,95.01
2017-08-05T00:27:19.599Z,95.11
2017-08-05T00:27:23.934Z,95.01
2017-08-05T00:27:28.407Z,94.92
2017-08-05T00:27:32.750Z,94.82
2017-08-05T00:27:37.217Z,94.82
2017-08-05T00:27:41.699Z,94.92
2017-08-05T00:27:46.159Z,95.01
2017-08-05T00:27:50.627Z,94.82
2017-08-05T00:27:55.116Z,94.92
2017-08-05T00:27:59.580Z,94.53
2017-08-05T00:28:04.049Z,95.4
2017-08-05T00:28:08.388Z,95.01
2017-08-05T00:28:12.850Z,95.31
2017-08-05T00:28:17.206Z,95.31
2017-08-05T00:28:21.430Z,95.4
2017-08-05T00:28:25.889Z,95.98
2017-08-05T00:28:30.240Z,95.69
2017-08-05T00:28:34.685Z,95.88
2017-08-05T00:28:39.166Z,95.88
2017-08-05T00:28:43.625Z,95.88
2017-08-05T00:28:48.094Z,95.88
2017-08-05T00:28:52.451Z,95.79
2017-08-05T00:28:56.786Z,95.98
2017-08-05T00:29:01.279Z,95.69
2017-08-05T00:29:05.756Z,96.17
2017-08-05T00:29:10.218Z,96.56
2017-08-05T00:29:14.572Z,96.17
2017-08-05T00:29:19.046Z,96.17
2017-08-05T00:29:23.512Z,96.27
2017-08-05T00:29:27.745Z,96.36
2017-08-05T00:29:32.193Z,96.27
2017-08-05T00:29:36.677Z,96.27
2017-08-05T00:29:41.045Z,96.27
2017-08-05T00:29:45.503Z,96.27
2017-08-05T00:29:49.971Z,96.36
2017-08-05T00:29:54.333Z,96.46
2017-08-05T00:29:58.779Z,95.88
2017-08-05T00:30:03.490Z,96.75
2017-08-05T00:30:07.857Z,96.46
2017-08-05T00:30:12.210Z,96.17
2017-08-05T00:30:16.561Z,96.17
2017-08-05T00:30:21.036Z,96.08
2017-08-05T00:30:25.256Z,96.08
2017-08-05T00:30:29.473Z,96.36
2017-08-05T00:30:33.831Z,96.08
2017-08-05T00:30:38.299Z,96.66
2017-08-05T00:30:42.757Z,96.46
2017-08-05T00:30:47.243Z,96.46
2017-08-05T00:30:51.699Z,96.46
2017-08-05T00:30:56.035Z,96.27
2017-08-05T00:31:00.382Z,96.27
2017-08-05T00:31:04.863Z,95.98
2017-08-05T00:31:09.211Z,95.98
2017-08-05T00:31:13.573Z,96.08
2017-08-05T00:31:17.681Z,96.08
2017-08-05T00:31:22.151Z,96.17
2017-08-05T00:31:26.499Z,96.17
2017-08-05T00:31:30.981Z,95.79
2017-08-05T00:31:35.449Z,96.27
2017-08-05T00:31:39.680Z,96.17
2017-08-05T00:31:44.144Z,95.88
2017-08-05T00:31:48.614Z,95.88
2017-08-05T00:31:53.070Z,95.88
2017-08-05T00:31:57.423Z,95.88
2017-08-05T00:32:01.928Z,95.79
2017-08-05T00:32:06.401Z,96.08
2017-08-05T00:32:10.641Z,96.27
2017-08-05T00:32:14.983Z,96.66
2017-08-05T00:32:19.324Z,96.36
2017-08-05T00:32:23.789Z,96.46
2017-08-05T00:32:28.137Z,96.08
2017-08-05T00:32:32.599Z,96.66
2017-08-05T00:32:36.939Z,96.36
2017-08-05T00:32:41.408Z,96.17
2017-08-05T00:32:45.875Z,96.36
2017-08-05T00:32:50.332Z,96.46
2017-08-05T00:32:54.567Z,96.66
2017-08-05T00:32:59.032Z,96.66
2017-08-05T00:33:03.426Z,96.36
2017-08-05T00:33:07.780Z,96.36
2017-08-05T00:33:12.251Z,96.75
2017-08-05T00:33:16.723Z,96.66
2017-08-05T00:33:20.950Z,96.36
2017-08-05T00:33:25.416Z,96.36
2017-08-05T00:33:29.746Z,96.46
2017-08-05T00:33:34.209Z,95.98
2017-08-05T00:33:38.542Z,96.46
2017-08-05T00:33:43.007Z,96.27
2017-08-05T00:33:47.365Z,95.98
2017-08-05T00:33:51.824Z,96.08
2017-08-05T00:33:56.047Z,95.88
2017-08-05T00:34:00.387Z,96.08
2017-08-05T00:34:04.867Z,96.84
2017-08-05T00:34:09.207Z,96.27
2017-08-05T00:34:13.663Z,95.98
2017-08-05T00:34:17.899Z,96.84
2017-08-05T00:34:22.018Z,96.56
2017-08-05T00:34:26.470Z,96.84
2017-08-05T00:34:30.817Z,96.46
2017-08-05T00:34:35.177Z,96.75
2017-08-05T00:34:39.525Z,96.75
2017-08-05T00:34:43.750Z,96.08
2017-08-05T00:34:48.233Z,96.27
2017-08-05T00:34:52.699Z,96.66
2017-08-05T00:34:57.042Z,96.75
2017-08-05T00:35:01.719Z,96.46
2017-08-05T00:35:06.060Z,96.56
2017-08-05T00:35:10.408Z,95.88
2017-08-05T00:35:14.873Z,96.36
2017-08-05T00:35:19.110Z,96.75
2017-08-05T00:35:23.472Z,96.46
2017-08-05T00:35:27.810Z,96.56
2017-08-05T00:35:32.288Z,96.56
2017-08-05T00:35:36.647Z,96.56
2017-08-05T00:35:40.972Z,96.51
2017-08-05T00:35:45.418Z,96.36
2017-08-05T00:35:49.871Z,96.27
2017-08-05T00:35:54.328Z,96.66
2017-08-05T00:35:58.796Z,96.41
2017-08-05T00:36:03.269Z,96.27
2017-08-05T00:36:07.657Z,96.56
2017-08-05T00:36:12.097Z,96.94
2017-08-05T00:36:16.442Z,96.46
2017-08-05T00:36:20.566Z,96.66
2017-08-05T00:36:24.899Z,96.56
2017-08-05T00:36:29.123Z,96.75
2017-08-05T00:36:33.574Z,96.75
2017-08-05T00:36:38.044Z,96.66
2017-08-05T00:36:42.394Z,96.46
2017-08-05T00:36:46.870Z,96.46
2017-08-05T00:36:51.344Z,96.61
2017-08-05T00:36:55.808Z,96.56
2017-08-05T00:37:00.291Z,96.56
2017-08-05T00:37:04.795Z,96.46
2017-08-05T00:37:09.246Z,96.17
2017-08-05T00:37:13.714Z,96.75
2017-08-05T00:37:18.067Z,96.75
2017-08-05T00:37:22.539Z,96.84
2017-08-05T00:37:27.003Z,97.09
2017-08-05T00:37:31.370Z,96.89
2017-08-05T00:37:35.837Z,97.04
2017-08-05T00:37:40.183Z,96.75
2017-08-05T00:37:44.660Z,97.62
2017-08-05T00:37:49.113Z,97.19
2017-08-05T00:37:53.575Z,97.19
2017-08-05T00:37:57.934Z,97.38
2017-08-05T00:38:02.405Z,97.52
2017-08-05T00:38:06.637Z,97.33
2017-08-05T00:38:10.867Z,97.42
2017-08-05T00:38:15.329Z,97.52
2017-08-05T00:38:19.799Z,97.28
2017-08-05T00:38:24.260Z,97.28
2017-08-05T00:38:28.630Z,96.99
2017-08-05T00:38:32.968Z,97.62
2017-08-05T00:38:37.312Z,97.33
2017-08-05T00:38:41.659Z,97.33
2017-08-05T00:38:46.120Z,97.33
2017-08-05T00:38:50.581Z,97.42
2017-08-05T00:38:55.056Z,97.28
2017-08-05T00:38:59.534Z,97.28
2017-08-05T00:39:04.324Z,97.33
2017-08-05T00:39:08.800Z,97.33
2017-08-05T00:39:13.263Z,97.09
2017-08-05T00:39:17.721Z,97.33
2017-08-05T00:39:22.076Z,97.14
2017-08-05T00:39:26.409Z,97.33
2017-08-05T00:39:30.876Z,96.99
2017-08-05T00:39:35.097Z,97.47
2017-08-05T00:39:39.565Z,97.52
2017-08-05T00:39:44.029Z,97.19
2017-08-05T00:39:48.492Z,97.28
2017-08-05T00:39:52.959Z,97.52
2017-08-05T00:39:57.425Z,97.28
2017-08-05T00:40:02.090Z,97.42
2017-08-05T00:40:06.329Z,97.24
2017-08-05T00:40:10.686Z,97.47
2017-08-05T00:40:15.039Z,96.99
2017-08-05T00:40:19.366Z,96.51
2017-08-05T00:40:23.834Z,96.99
2017-08-05T00:40:28.195Z,96.94
2017-08-05T00:40:32.550Z,96.66
2017-08-05T00:40:36.780Z,96.7
2017-08-05T00:40:41.136Z,96.61
2017-08-05T00:40:45.591Z,96.99
2017-08-05T00:40:49.944Z,96.7
2017-08-05T00:40:54.419Z,96.7
2017-08-05T00:40:58.878Z,96.7
2017-08-05T00:41:03.338Z,96.8
2017-08-05T00:41:07.800Z,96.51
2017-08-05T00:41:12.151Z,96.46
2017-08-05T00:41:16.614Z,96.32
2017-08-05T00:41:21.081Z,96.36
2017-08-05T00:41:25.557Z,96.51
2017-08-05T00:41:30.024Z,96.61
2017-08-05T00:41:34.510Z,96.7
2017-08-05T00:41:38.994Z,96.51
2017-08-05T00:41:43.343Z,96.12
2017-08-05T00:41:47.792Z,96.61
2017-08-05T00:41:52.267Z,96.41
2017-08-05T00:41:56.605Z,96.51
2017-08-05T00:42:01.056Z,96.7
2017-08-05T00:42:05.390Z,96.51
2017-08-05T00:42:09.762Z,96.7
2017-08-05T00:42:14.217Z,96.41
2017-08-05T00:42:18.577Z,96.89
2017-08-05T00:42:23.050Z,96.51
2017-08-05T00:42:27.390Z,96.7
2017-08-05T00:42:31.727Z,96.51
2017-08-05T00:42:36.069Z,96.17
2017-08-05T00:42:40.532Z,96.22
2017-08-05T00:42:44.874Z,96.32
2017-08-05T00:42:49.343Z,96.61
2017-08-05T00:42:53.812Z,96.41
2017-08-05T00:42:58.268Z,96.32
2017-08-05T00:43:02.760Z,96.51
2017-08-05T00:43:07.219Z,96.03
2017-08-05T00:43:11.686Z,96.61
2017-08-05T00:43:16.141Z,96.51
2017-08-05T00:43:20.590Z,96.41
2017-08-05T00:43:24.813Z,96.41
2017-08-05T00:43:29.052Z,96.41
2017-08-05T00:43:33.397Z,96.32
2017-08-05T00:43:37.734Z,96.22
2017-08-05T00:43:42.198Z,96.32
2017-08-05T00:43:46.672Z,96.32
2017-08-05T00:43:50.996Z,95.93
2017-08-05T00:43:55.235Z,96.41
2017-08-05T00:43:59.583Z,96.22
2017-08-05T00:44:04.036Z,96.8
2017-08-05T00:44:08.378Z,96.12
2017-08-05T00:44:12.836Z,96.03
2017-08-05T00:44:17.290Z,96.41
2017-08-05T00:44:21.755Z,96.61
2017-08-05T00:44:26.104Z,96.03
2017-08-05T00:44:30.571Z,95.93
2017-08-05T00:44:35.022Z,96.41
2017-08-05T00:44:39.512Z,95.93
2017-08-05T00:44:43.948Z,96.03
2017-08-05T00:44:48.053Z,96.22
2017-08-05T00:44:52.547Z,96.41
2017-08-05T00:44:57.007Z,95.84
2017-08-05T00:45:01.467Z,96.51
2017-08-05T00:45:05.854Z,96.61
2017-08-05T00:45:10.309Z,96.41
2017-08-05T00:45:14.666Z,96.32
2017-08-05T00:45:19.120Z,96.41
2017-08-05T00:45:23.472Z,96.41
2017-08-05T00:45:27.817Z,96.41
2017-08-05T00:45:32.049Z,96.03
2017-08-05T00:45:36.403Z,96.41
2017-08-05T00:45:40.854Z,96.03
2017-08-05T00:45:45.207Z,96.22
2017-08-05T00:45:49.653Z,96.41
2017-08-05T00:45:54.120Z,96.7
2017-08-05T00:45:58.561Z,96.61
2017-08-05T00:46:03.036Z,96.03
2017-08-05T00:46:07.393Z,96.03
2017-08-05T00:46:11.865Z,96.41
2017-08-05T00:46:16.102Z,96.61
2017-08-05T00:46:20.570Z,95.93
2017-08-05T00:46:25.036Z,96.22
2017-08-05T00:46:29.500Z,96.32
2017-08-05T00:46:33.962Z,96.7
2017-08-05T00:46:38.306Z,96.03
2017-08-05T00:46:42.756Z,96.7
2017-08-05T00:46:47.219Z,96.32
2017-08-05T00:46:51.676Z,96.03
2017-08-05T00:46:56.031Z,97.09
2017-08-05T00:47:00.372Z,96.12
2017-08-05T00:47:04.731Z,96.61
2017-08-05T00:47:09.195Z,96.22
2017-08-05T00:47:13.550Z,96.61
2017-08-05T00:47:17.888Z,96.8
2017-08-05T00:47:22.221Z,96.32
2017-08-05T00:47:26.697Z,96.8
2017-08-05T00:47:31.039Z,96.61
2017-08-05T00:47:35.512Z,96.7
2017-08-05T00:47:39.860Z,96.41
2017-08-05T00:47:44.327Z,96.51
2017-08-05T00:47:48.786Z,96.51
2017-08-05T00:47:53.236Z,96.51
2017-08-05T00:47:57.695Z,96.22
2017-08-05T00:48:02.157Z,96.51
2017-08-05T00:48:06.626Z,96.32
2017-08-05T00:48:11.092Z,96.32
2017-08-05T00:48:15.558Z,96.22
2017-08-05T00:48:19.903Z,96.51
2017-08-05T00:48:24.363Z,96.8
2017-08-05T00:48:28.845Z,96.8
2017-08-05T00:48:33.323Z,96.61
2017-08-05T00:48:37.679Z,96.22
2017-08-05T00:48:42.018Z,96.7
2017-08-05T00:48:46.477Z,96.41
2017-08-05T00:48:50.981Z,96.51
2017-08-05T00:48:55.444Z,96.41
2017-08-05T00:48:59.903Z,96.8
2017-08-05T00:49:04.370Z,96.22
2017-08-05T00:49:08.710Z,96.41
2017-08-05T00:49:13.049Z,96.22
2017-08-05T00:49:17.496Z,96.51
2017-08-05T00:49:21.951Z,96.41
2017-08-05T00:49:26.422Z,96.61
2017-08-05T00:49:30.904Z,96.51
2017-08-05T00:49:35.391Z,96.61
2017-08-05T00:49:39.857Z,96.61
2017-08-05T00:49:44.332Z,96.22
2017-08-05T00:49:48.805Z,96.61
2017-08-05T00:49:53.256Z,96.51
2017-08-05T00:49:57.597Z,96.41
2017-08-05T00:50:02.061Z,97.09
2017-08-05T00:50:06.406Z,96.61
2017-08-05T00:50:10.744Z,96.41
2017-08-05T00:50:15.209Z,96.41
2017-08-05T00:50:19.567Z,96.61
2017-08-05T00:50:24.029Z,96.41
2017-08-05T00:50:28.490Z,96.41
2017-08-05T00:50:32.835Z,96.32
2017-08-05T00:50:37.173Z,96.7
2017-08-05T00:50:41.633Z,96.22
2017-08-05T00:50:46.092Z,96.22
2017-08-05T00:50:50.442Z,96.41
2017-08-05T00:50:54.925Z,96.12
2017-08-05T00:50:59.126Z,96.51
2017-08-05T00:51:03.583Z,96.32
2017-08-05T00:51:08.049Z,96.32
2017-08-05T00:51:12.425Z,96.7
2017-08-05T00:51:16.889Z,95.84
2017-08-05T00:51:21.354Z,96.41
2017-08-05T00:51:25.710Z,96.12
2017-08-05T00:51:30.187Z,95.84
2017-08-05T00:51:34.660Z,95.84
2017-08-05T00:51:38.775Z,96.32
2017-08-05T00:51:43.225Z,96.12
2017-08-05T00:51:47.694Z,96.32
2017-08-05T00:51:52.172Z,95.93
2017-08-05T00:51:56.617Z,96.22
2017-08-05T00:52:01.073Z,96.03
2017-08-05T00:52:05.350Z,95.84
2017-08-05T00:52:09.562Z,95.93
2017-08-05T00:52:13.901Z,95.64
2017-08-05T00:52:18.260Z,95.84
2017-08-05T00:52:22.736Z,95.84
2017-08-05T00:52:27.194Z,95.93
2017-08-05T00:52:31.678Z,95.93
2017-08-05T00:52:36.024Z,96.03
2017-08-05T00:52:40.486Z,95.93
2017-08-05T00:52:44.846Z,95.93
2017-08-05T00:52:49.322Z,95.54
2017-08-05T00:52:53.779Z,95.64
2017-08-05T00:52:58.254Z,95.54
2017-08-05T00:53:02.716Z,95.93
2017-08-05T00:53:07.182Z,95.93
2017-08-05T00:53:11.532Z,95.54
2017-08-05T00:53:15.765Z,95.54
2017-08-05T00:53:20.008Z,95.54
2017-08-05T00:53:24.479Z,95.84
2017-08-05T00:53:28.943Z,95.54
2017-08-05T00:53:33.302Z,95.54
2017-08-05T00:53:37.750Z,95.93
2017-08-05T00:53:41.979Z,95.54
2017-08-05T00:53:46.444Z,95.64
2017-08-05T00:53:50.773Z,95.84
2017-08-05T00:53:55.239Z,95.54
2017-08-05T00:53:59.714Z,95.84
2017-08-05T00:54:04.063Z,95.64
2017-08-05T00:54:08.293Z,95.64
2017-08-05T00:54:12.768Z,95.84
2017-08-05T00:54:17.126Z,95.84
2017-08-05T00:54:21.467Z,95.64
2017-08-05T00:54:25.813Z,95.84
2017-08-05T00:54:30.143Z,95.64
2017-08-05T00:54:34.601Z,95.84
2017-08-05T00:54:38.835Z,95.84
2017-08-05T00:54:43.068Z,96.03
2017-08-05T00:54:47.539Z,95.84
2017-08-05T00:54:52.009Z,95.64
2017-08-05T00:54:56.487Z,95.84
2017-08-05T00:55:00.964Z,95.74
2017-08-05T00:55:05.334Z,95.74
2017-08-05T00:55:09.555Z,95.84
2017-08-05T00:55:14.017Z,96.03
2017-08-05T00:55:18.476Z,95.84
2017-08-05T00:55:22.924Z,95.84
2017-08-05T00:55:27.384Z,95.93
2017-08-05T00:55:31.719Z,95.84
2017-08-05T00:55:36.184Z,95.93
2017-08-05T00:55:40.654Z,95.84
2017-08-05T00:55:45.014Z,95.84
2017-08-05T00:55:49.464Z,95.84
2017-08-05T00:55:53.818Z,96.03
2017-08-05T00:55:58.308Z,95.84
2017-08-05T00:56:02.800Z,95.84
2017-08-05T00:56:07.135Z,95.84
2017-08-05T00:56:11.489Z,95.84
2017-08-05T00:56:15.833Z,95.84
2017-08-05T00:56:20.301Z,95.84
2017-08-05T00:56:24.764Z,95.74
2017-08-05T00:56:29.227Z,95.93
2017-08-05T00:56:33.698Z,95.84
2017-08-05T00:56:38.169Z,95.93
2017-08-05T00:56:42.519Z,95.74
2017-08-05T00:56:46.986Z,95.84
2017-08-05T00:56:51.336Z,96.03